Time;durP1;ratioP1;P1;durP2;ratioP2;P2;SDS_P1;SDS_P2;PMS_P1;PMS_P2;Temp;Humidity;BMP_temperature;BMP_pressure;BME280_temperature;BME280_humidity;BME280_pressure;Samples;Min_cycle;Max_cycle;Signal;HPM_P1;HPM_P2
2023/10/01 13:30:18;;;;;;;0.60;0.10;;;22.30;44.40;;;;;;5067009;23;20482;-70
2023/10/01 13:33:10;;;;;;;0.90;0.60;;;22.30;37.50;;;;;;5023716;28;20482;-68
2023/10/01 13:35:36;;;;;;;1.27;1.17;;;22.30;48.60;;;;;;5034972;28;20529;-70
2023/10/01 13:38:26;;;;;;;2.30;1.50;;;22.20;36.40;;;;;;5015101;28;20467;-68
2023/10/01 14:08:44;;;;;;;8.63;1.13;;;22.70;37.30;;;;;;5017815;28;21149;-69
2023/10/01 14:11:15;;;;;;;0.60;0.27;;;22.70;33.80;;;;;;5011424;28;20532;-70
2023/10/01 14:13:44;;;;;;;0.97;0.87;;;22.70;45.20;;;;;;5010980;28;20531;-68
2023/10/01 14:16:22;;;;;;;0.60;0.20;;;22.70;34.60;;;;;;5011276;28;20471;-70
2023/10/01 14:18:57;;;;;;;0.60;0.20;;;22.70;34.80;;;;;;5030733;28;20442;-67
2023/10/01 14:21:28;;;;;;;0.60;0.10;;;22.70;44.30;;;;;;5030894;28;21154;-69
2023/10/01 14:24:21;;;;;;;0.60;0.17;;;22.80;33.10;;;;;;5031000;28;20489;-69
2023/10/01 14:26:47;;;;;;;1.83;1.30;;;22.90;30.50;;;;;;5033346;28;20487;-68
2023/10/01 14:29:21;;;;;;;5.40;1.10;;;22.90;30.70;;;;;;5030600;28;20517;-68
2023/10/01 14:31:50;;;;;;;0.60;0.10;;;22.90;28.60;;;;;;5030709;28;20967;-68
2023/10/01 14:34:21;;;;;;;0.60;0.20;;;22.90;39.20;;;;;;5038695;28;20446;-68
2023/10/01 14:36:51;;;;;;;0.60;0.20;;;23.00;29.30;;;;;;5036053;28;20480;-68
2023/10/01 14:39:29;;;;;;;0.60;0.30;;;;;;;;;;5030246;28;20455;-69
2023/10/01 14:41:58;;;;;;;0.60;0.10;;;23.00;28.30;;;;;;5030622;28;20450;-70
2023/10/01 14:44:25;;;;;;;2.40;1.80;;;22.90;25.00;;;;;;5030432;28;20482;-69
2023/10/01 14:46:56;;;;;;;0.60;0.20;;;22.90;27.80;;;;;;5032771;28;20492;-68
2023/10/01 14:49:25;;;;;;;0.60;0.10;;;22.90;38.00;;;;;;5030645;28;20451;-69
2023/10/01 14:51:56;;;;;;;1.93;0.73;;;23.00;28.30;;;;;;5030300;28;21479;-69
2023/10/01 14:54:25;;;;;;;0.60;0.10;;;23.10;28.90;;;;;;5030455;28;20501;-69
2023/10/01 14:56:55;;;;;;;0.60;0.10;;;23.10;25.00;;;;;;5032692;28;20486;-69
2023/10/01 14:59:29;;;;;;;0.60;0.10;;;23.10;28.00;;;;;;5032258;28;20448;-69
2023/10/01 15:01:59;;;;;;;3.17;0.37;;;23.10;38.60;;;;;;5030662;28;20981;-69
2023/10/01 15:04:35;;;;;;;0.60;0.10;;;23.20;25.90;;;;;;5033550;28;20457;-70
2023/10/01 15:07:05;;;;;;;1.67;1.03;;;23.20;23.70;;;;;;5031899;28;20829;-69
2023/10/01 15:09:36;;;;;;;0.60;0.30;;;23.20;22.00;;;;;;5035382;28;20482;-70
2023/10/01 15:12:07;;;;;;;0.60;0.10;;;23.20;30.80;;;;;;5034097;28;20444;-70
2023/10/01 15:14:55;;;;;;;0.60;0.20;;;23.30;33.30;;;;;;5036221;28;20449;-68
2023/10/01 15:17:45;;;;;;;0.60;0.10;;;;;;;;;;5030073;28;20471;-68
2023/10/01 15:20:27;;;;;;;3.23;2.20;;;23.40;23.10;;;;;;5029912;28;20482;-68
2023/10/01 15:22:56;;;;;;;0.70;0.20;;;22.70;29.20;;;;;;5030322;28;20445;-67
2023/10/01 15:25:26;;;;;;;0.60;0.10;;;23.50;23.60;;;;;;5041000;28;20484;-68
2023/10/01 15:27:59;;;;;;;0.60;0.20;;;23.60;22.70;;;;;;5042794;28;20519;-67
2023/10/01 15:30:34;;;;;;;0.60;0.20;;;23.60;19.50;;;;;;5042832;28;20440;-68
2023/10/01 15:33:09;;;;;;;0.60;0.20;;;23.50;21.80;;;;;;5036260;28;20460;-69
2023/10/01 15:35:43;;;;;;;0.60;0.20;;;23.50;29.90;;;;;;5039967;28;20787;-68
2023/10/01 15:38:11;;;;;;;2.10;2.00;;;23.60;22.90;;;;;;5041587;28;20931;-69
2023/10/01 15:40:51;;;;;;;0.60;0.30;;;23.60;17.30;;;;;;5034152;28;20449;-68
2023/10/01 15:43:20;;;;;;;0.70;0.40;;;23.60;15.10;;;;;;5034657;28;20543;-69
2023/10/01 15:45:49;;;;;;;0.60;0.20;;;23.60;15.90;;;;;;5033832;28;20475;-69
2023/10/01 15:48:18;;;;;;;1.80;0.60;;;23.60;17.30;;;;;;5033751;28;20985;-70
2023/10/01 15:50:49;;;;;;;0.70;0.30;;;23.70;26.10;;;;;;5034010;28;20458;-70
2023/10/01 15:53:21;;;;;;;0.60;0.10;;;23.60;15.20;;;;;;5035522;28;20479;-68
2023/10/01 15:56:00;;;;;;;3.30;1.07;;;23.40;10.80;;;;;;5045850;28;20450;-68
2023/10/01 15:58:28;;;;;;;2.73;1.43;;;23.40;10.40;;;;;;5041069;28;20444;-68
2023/10/01 16:00:59;;;;;;;1.07;0.30;;;;;;;;;;5043025;28;20807;-69
2023/10/01 16:03:30;;;;;;;0.60;0.33;;;23.10;11.50;;;;;;5043109;28;20492;-69
2023/10/01 16:06:08;;;;;;;0.60;0.20;;;23.00;12.90;;;;;;5044889;28;20555;-68
2023/10/01 16:08:42;;;;;;;0.60;0.10;;;;;;;;;;5040962;28;20527;-69
2023/10/01 16:11:12;;;;;;;0.60;0.20;;;23.00;10.30;;;;;;5038379;28;20973;-75
2023/10/01 16:13:52;;;;;;;0.60;0.20;;;22.90;12.30;;;;;;5041956;28;20448;-75
2023/10/01 16:16:26;;;;;;;0.60;0.10;;;;;;;;;;5045718;28;20562;-76
2023/10/01 16:18:59;;;;;;;0.60;0.10;;;23.10;15.60;;;;;;5039144;28;20513;-75
2023/10/01 16:21:32;;;;;;;0.60;0.10;;;23.10;15.60;;;;;;5046239;28;20850;-75
2023/10/01 16:24:00;;;;;;;0.60;0.20;;;23.00;13.20;;;;;;5045754;28;20819;-76
2023/10/01 16:26:30;;;;;;;2.40;1.90;;;22.90;14.50;;;;;;5045704;28;21001;-74
2023/10/01 16:29:02;;;;;;;1.03;0.33;;;22.90;13.80;;;;;;5044214;28;20530;-76
2023/10/01 16:31:32;;;;;;;1.43;1.27;;;22.80;22.80;;;;;;5046481;28;20457;-77
2023/10/01 16:34:02;;;;;;;0.60;0.20;;;;;;;;;;5044126;28;20464;-76
2023/10/01 16:36:37;;;;;;;0.60;0.10;;;22.60;15.80;;;;;;5052518;28;20504;-74
2023/10/01 16:39:12;;;;;;;0.60;0.20;;;22.60;17.10;;;;;;5053602;28;20441;-75
2023/10/01 16:41:41;;;;;;;0.60;0.10;;;;;;;;;;5054898;28;20878;-76
2023/10/01 16:44:09;;;;;;;0.60;0.10;;;22.50;18.50;;;;;;5045128;28;20482;-75
2023/10/01 16:46:37;;;;;;;0.60;0.10;;;22.50;20.30;;;;;;5033931;28;20487;-76
2023/10/01 16:49:12;;;;;;;0.60;0.10;;;22.40;23.50;;;;;;5034318;28;20454;-76
2023/10/01 16:51:43;;;;;;;0.60;0.10;;;;;;;;;;5034402;28;21015;-77
2023/10/01 16:54:16;;;;;;;0.60;0.10;;;22.40;24.10;;;;;;5035137;28;20444;-75
2023/10/01 16:56:47;;;;;;;0.60;0.10;;;22.30;23.00;;;;;;5035044;28;20483;-76
2023/10/01 16:59:21;;;;;;;0.60;0.10;;;22.20;20.30;;;;;;5040749;28;20489;-76
2023/10/01 17:01:54;;;;;;;0.60;0.10;;;;;;;;;;5034968;28;20478;-77
2023/10/01 17:04:26;;;;;;;0.60;0.20;;;22.10;19.50;;;;;;5039056;28;20982;-77
2023/10/01 17:06:58;;;;;;;0.60;0.10;;;22.00;19.00;;;;;;5039559;28;20906;-76
2023/10/01 17:09:32;;;;;;;0.60;0.10;;;22.00;18.50;;;;;;5038692;28;20459;-76
2023/10/01 17:12:01;;;;;;;0.60;0.10;;;21.90;19.60;;;;;;5034780;28;20481;-75
2023/10/01 17:14:30;;;;;;;0.60;0.10;;;21.90;27.80;;;;;;5034460;28;20443;-75
2023/10/01 17:17:00;;;;;;;0.60;0.17;;;21.80;20.40;;;;;;5049121;28;20462;-76
2023/10/01 17:19:32;;;;;;;0.60;0.10;;;21.70;22.20;;;;;;5035216;28;20443;-75
2023/10/01 17:22:07;;;;;;;0.60;0.10;;;21.60;23.90;;;;;;5041076;28;20990;-74
2023/10/01 17:24:43;;;;;;;0.60;0.10;;;21.60;26.80;;;;;;5034264;28;20996;-76
2023/10/01 17:27:17;;;;;;;0.60;0.20;;;21.50;26.70;;;;;;5036948;28;21009;-75
2023/10/01 17:29:46;;;;;;;0.60;0.10;;;21.40;26.60;;;;;;5035487;28;20543;-76
2023/10/01 17:32:15;;;;;;;0.60;0.20;;;21.40;26.80;;;;;;5035950;28;20944;-75
2023/10/01 17:34:45;;;;;;;0.60;0.10;;;21.40;26.70;;;;;;5043977;28;20451;-75
2023/10/01 17:37:21;;;;;;;0.60;0.10;;;21.30;27.80;;;;;;5034716;28;20493;-75
2023/10/01 17:39:54;;;;;;;0.60;0.10;;;21.20;28.60;;;;;;5037959;28;20443;-76
2023/10/01 17:42:25;;;;;;;0.60;0.20;;;21.20;30.30;;;;;;5042051;28;20475;-76
2023/10/01 17:44:55;;;;;;;0.60;0.10;;;21.10;30.60;;;;;;5041549;28;20534;-75
2023/10/01 17:47:23;;;;;;;0.60;0.10;;;21.10;31.40;;;;;;5039148;28;20565;-76
2023/10/01 17:49:56;;;;;;;0.60;0.13;;;21.00;32.90;;;;;;5039568;28;20447;-75
2023/10/01 17:52:29;;;;;;;0.60;0.10;;;21.00;33.70;;;;;;5040032;28;20461;-77
2023/10/01 17:55:01;;;;;;;0.60;0.10;;;20.90;35.10;;;;;;5035539;28;20450;-76
2023/10/01 17:57:33;;;;;;;0.60;0.10;;;20.90;34.70;;;;;;5037943;28;20466;-75
2023/10/01 18:00:34;;;;;;;0.60;0.10;;;20.90;37.10;;;;;;5053893;28;20446;-75
2023/10/01 18:03:03;;;;;;;0.60;0.10;;;20.80;36.80;;;;;;5053458;28;20541;-76
2023/10/01 18:05:31;;;;;;;0.60;0.10;;;20.80;37.50;;;;;;5051779;28;20541;-76
2023/10/01 18:08:04;;;;;;;0.60;0.10;;;;;;;;;;5053488;28;20482;-75
2023/10/01 18:10:36;;;;;;;0.60;0.10;;;20.70;40.40;;;;;;5045171;28;20443;-77
2023/10/01 18:13:10;;;;;;;0.60;0.20;;;20.70;41.50;;;;;;5053226;28;20465;-76
2023/10/01 18:15:40;;;;;;;0.70;0.17;;;20.60;42.80;;;;;;5041031;28;20457;-76
2023/10/01 18:18:11;;;;;;;0.60;0.10;;;20.60;43.30;;;;;;5032670;28;21026;-76
2023/10/01 18:20:40;;;;;;;0.60;0.10;;;20.60;44.40;;;;;;5034529;28;20447;-76
2023/10/01 18:23:11;;;;;;;0.60;0.10;;;20.50;45.20;;;;;;5032969;28;20522;-76
2023/10/01 18:25:40;;;;;;;0.60;0.30;;;20.50;45.40;;;;;;5034172;28;20977;-74
2023/10/01 18:28:09;;;;;;;0.60;0.10;;;20.50;45.10;;;;;;5033755;28;20482;-76
2023/10/01 18:30:47;;;;;;;0.60;0.10;;;;;;;;;;5033471;28;20463;-76
2023/10/01 18:33:17;;;;;;;0.60;0.10;;;20.40;48.00;;;;;;5034886;28;20446;-76
2023/10/01 18:35:54;;;;;;;0.60;0.10;;;20.40;48.90;;;;;;5034950;28;20435;-76
2023/10/01 18:38:25;;;;;;;0.60;0.10;;;20.40;49.30;;;;;;5042697;28;20477;-76
2023/10/01 18:40:53;;;;;;;0.60;0.13;;;20.30;49.20;;;;;;5034287;28;20439;-77
2023/10/01 18:43:22;;;;;;;0.60;0.20;;;;;;;;;;5049779;28;20463;-76
2023/10/01 18:45:56;;;;;;;0.60;0.10;;;20.30;53.60;;;;;;5032914;28;20971;-76
2023/10/01 18:48:25;;;;;;;0.60;0.20;;;20.20;53.70;;;;;;5032790;28;21244;-76
2023/10/01 18:50:56;;;;;;;0.60;0.10;;;20.20;64.70;;;;;;5039265;28;20474;-77
2023/10/01 18:53:26;;;;;;;0.60;0.10;;;;;;;;;;5038226;28;20932;-76
2023/10/01 18:55:55;;;;;;;0.60;0.10;;;;;;;;;;5044263;28;20447;-76
2023/10/01 18:58:23;;;;;;;0.60;0.10;;;20.20;56.50;;;;;;5034341;28;20829;-79
2023/10/01 19:00:53;;;;;;;0.60;0.10;;;20.20;57.20;;;;;;5033367;28;20443;-76
2023/10/01 19:03:23;;;;;;;0.60;0.10;;;20.10;57.20;;;;;;5035607;28;20455;-77
2023/10/01 19:05:58;;;;;;;0.60;0.10;;;;;;;;;;5047642;28;20546;-76
2023/10/01 19:08:30;;;;;;;0.60;0.10;;;20.10;58.40;;;;;;5037212;28;21053;-75
2023/10/01 19:10:59;;;;;;;0.60;0.13;;;20.10;59.70;;;;;;5053471;28;20496;-78
2023/10/01 19:13:30;;;;;;;0.60;0.20;;;20.00;61.00;;;;;;5037445;28;20939;-76
2023/10/01 19:15:59;;;;;;;0.60;0.10;;;;;;;;;;5034297;28;20443;-76
2023/10/01 19:18:28;;;;;;;0.60;0.10;;;20.00;63.60;;;;;;5032034;28;20502;-76
2023/10/01 19:20:58;;;;;;;0.60;0.10;;;20.00;64.10;;;;;;5038755;28;20457;-76
2023/10/01 19:23:31;;;;;;;0.60;0.30;;;20.00;64.10;;;;;;5032771;28;20459;-77
2023/10/01 19:26:04;;;;;;;0.70;0.60;;;19.90;66.40;;;;;;5039010;28;20446;-78
2023/10/01 19:28:34;;;;;;;0.60;0.10;;;19.90;67.20;;;;;;5051969;28;20486;-76
2023/10/01 19:31:09;;;;;;;0.60;0.10;;;19.90;67.30;;;;;;5050614;28;20512;-76
2023/10/01 19:33:40;;;;;;;0.60;0.10;;;19.80;68.30;;;;;;5033043;28;20447;-77
2023/10/01 19:36:09;;;;;;;0.70;0.20;;;19.80;68.50;;;;;;5038662;28;20554;-76
2023/10/01 19:38:39;;;;;;;0.60;0.20;;;19.80;68.90;;;;;;5031657;28;20451;-76
2023/10/01 19:41:09;;;;;;;0.60;0.20;;;19.80;69.50;;;;;;5046847;28;20507;-76
2023/10/01 19:43:38;;;;;;;0.60;0.10;;;19.80;69.20;;;;;;5033650;28;20534;-75
2023/10/01 19:46:08;;;;;;;0.60;0.10;;;19.70;69.20;;;;;;5040101;28;20491;-74
2023/10/01 19:48:39;;;;;;;0.70;0.50;;;19.70;69.70;;;;;;5033731;28;20491;-74
2023/10/01 19:51:08;;;;;;;0.60;0.10;;;19.70;70.10;;;;;;5050778;28;20461;-75
2023/10/01 19:53:36;;;;;;;0.60;0.10;;;19.60;71.30;;;;;;5035193;28;20458;-75
2023/10/01 19:56:06;;;;;;;0.90;0.23;;;19.60;72.20;;;;;;5044526;28;20463;-74
2023/10/01 19:58:48;;;;;;;0.60;0.20;;;19.60;72.70;;;;;;5048350;28;20487;-75
2023/10/01 20:01:17;;;;;;;0.60;0.10;;;19.60;72.20;;;;;;5035666;28;20446;-76
2023/10/01 20:03:47;;;;;;;0.60;0.10;;;19.50;73.10;;;;;;5046973;28;20450;-72
2023/10/01 20:06:20;;;;;;;0.70;0.20;;;19.50;73.50;;;;;;5039080;28;20439;-73
2023/10/01 20:08:55;;;;;;;0.60;0.10;;;19.40;73.70;;;;;;5034530;28;20479;-74
2023/10/01 20:11:24;;;;;;;0.60;0.10;;;19.40;85.10;;;;;;5054341;28;20446;-75
2023/10/01 20:13:53;;;;;;;0.60;0.20;;;19.30;75.20;;;;;;5040329;28;20550;-73
2023/10/01 20:16:23;;;;;;;0.60;0.10;;;18.90;76.70;;;;;;5047193;28;20467;-74
2023/10/01 20:18:54;;;;;;;1.70;1.60;;;19.30;77.70;;;;;;5050169;28;20495;-75
2023/10/01 20:21:27;;;;;;;0.60;0.20;;;19.30;78.30;;;;;;5042238;28;20447;-73
2023/10/01 20:23:57;;;;;;;0.60;0.20;;;19.20;78.40;;;;;;5057808;28;20484;-74
2023/10/01 20:26:28;;;;;;;0.60;0.10;;;19.10;79.40;;;;;;5056666;28;20505;-74
2023/10/01 20:28:57;;;;;;;0.60;0.10;;;19.10;80.50;;;;;;5043585;28;21005;-75
2023/10/01 20:31:27;;;;;;;0.60;0.10;;;19.00;83.30;;;;;;5036661;28;20451;-74
2023/10/01 20:33:56;;;;;;;0.60;0.20;;;;;;;;;;5050683;28;21008;-75
2023/10/01 20:36:25;;;;;;;0.60;0.10;;;18.90;90.20;;;;;;5043444;28;20473;-73
2023/10/01 20:38:53;;;;;;;0.80;0.80;;;18.90;91.30;;;;;;5043540;28;20435;-75
2023/10/01 20:41:23;;;;;;;0.60;0.30;;;18.80;96.40;;;;;;5044626;28;20487;-76
2023/10/01 20:43:55;;;;;;;2.50;0.90;;;18.80;93.40;;;;;;5043357;28;20482;-74
2023/10/01 20:46:26;;;;;;;0.60;0.20;;;;;;;;;;5043079;28;20472;-75
2023/10/01 20:49:00;;;;;;;0.60;0.27;;;18.70;94.70;;;;;;5039040;28;20984;-74
2023/10/01 20:51:31;;;;;;;0.60;0.10;;;18.60;97.10;;;;;;5044421;28;20965;-75
2023/10/01 20:54:01;;;;;;;1.03;0.93;;;18.60;97.10;;;;;;5047860;28;20439;-75
2023/10/01 20:56:32;;;;;;;3.03;2.03;;;18.60;98.20;;;;;;5036621;28;20524;-73
2023/10/01 20:59:12;;;;;;;0.60;0.10;;;18.50;99.20;;;;;;5034318;28;20448;-75
2023/10/01 21:01:47;;;;;;;0.70;0.37;;;18.60;99.90;;;;;;5050574;28;20454;-75
2023/10/01 21:04:24;;;;;;;0.60;0.20;;;18.50;99.90;;;;;;5034340;28;20442;-74
2023/10/01 21:06:54;;;;;;;0.67;0.30;;;18.50;99.90;;;;;;5046577;28;20533;-74
2023/10/01 21:09:23;;;;;;;0.93;0.83;;;18.40;99.90;;;;;;5037754;28;20471;-74
2023/10/01 21:12:00;;;;;;;2.43;2.23;;;18.40;99.90;;;;;;5046170;28;20447;-75
2023/10/01 21:14:32;;;;;;;0.60;0.10;;;18.40;99.90;;;;;;5036747;28;20453;-75
2023/10/01 21:17:06;;;;;;;0.60;0.10;;;18.20;99.90;;;;;;5033826;28;20491;-76
2023/10/01 21:19:39;;;;;;;0.90;0.40;;;18.20;99.90;;;;;;5034193;28;20438;-74
2023/10/01 21:22:09;;;;;;;0.70;0.40;;;18.10;99.90;;;;;;5039682;28;20504;-73
2023/10/01 21:24:40;;;;;;;0.60;0.10;;;18.10;99.90;;;;;;5045300;28;20445;-75
2023/10/01 21:27:09;;;;;;;5.13;3.23;;;18.00;99.90;;;;;;5045109;28;20879;-74
2023/10/01 21:29:38;;;;;;;0.60;0.20;;;18.00;99.90;;;;;;5037395;28;20525;-74
2023/10/01 21:32:08;;;;;;;0.80;0.30;;;18.00;99.90;;;;;;5045743;28;20478;-75
2023/10/01 21:34:39;;;;;;;0.60;0.10;;;17.90;99.90;;;;;;5034910;28;20450;-74
2023/10/01 21:37:09;;;;;;;0.60;0.20;;;18.00;99.90;;;;;;5033377;28;20480;-75
2023/10/01 21:39:38;;;;;;;1.10;0.73;;;18.00;99.90;;;;;;5041012;28;20449;-74
2023/10/01 21:42:09;;;;;;;0.60;0.10;;;17.90;99.90;;;;;;5041701;28;21025;-75
2023/10/01 21:44:38;;;;;;;0.63;0.30;;;17.80;99.90;;;;;;5033745;28;20435;-75
2023/10/01 21:47:08;;;;;;;0.60;0.10;;;17.80;99.90;;;;;;5041619;28;20469;-75
2023/10/01 21:49:47;;;;;;;0.60;0.40;;;17.70;99.90;;;;;;5034657;28;20570;-74
2023/10/01 21:52:16;;;;;;;0.60;0.20;;;17.70;99.90;;;;;;5053248;28;20442;-75
2023/10/01 21:54:50;;;;;;;1.77;1.50;;;17.80;99.90;;;;;;5053456;28;20481;-75
2023/10/01 21:57:18;;;;;;;1.67;1.20;;;17.70;99.90;;;;;;5045596;28;20968;-75
2023/10/01 21:59:48;;;;;;;0.60;0.20;;;17.70;99.90;;;;;;5035475;28;20956;-73
2023/10/01 22:02:18;;;;;;;0.77;0.37;;;17.70;99.90;;;;;;5036214;28;20450;-74
2023/10/01 22:04:50;;;;;;;1.17;0.97;;;17.70;99.90;;;;;;5044559;28;20525;-75
2023/10/01 22:07:20;;;;;;;0.60;0.10;;;17.60;99.90;;;;;;5049461;28;21163;-73
2023/10/01 22:09:51;;;;;;;0.60;0.20;;;17.50;99.90;;;;;;5034023;28;20548;-73
2023/10/01 22:12:21;;;;;;;0.70;0.43;;;17.60;99.90;;;;;;5048877;28;20532;-74
2023/10/01 22:14:51;;;;;;;0.60;0.20;;;17.60;99.90;;;;;;5041461;28;20965;-74
2023/10/01 22:17:33;;;;;;;0.60;0.20;;;17.60;99.90;;;;;;5040764;28;20474;-73
2023/10/01 22:20:14;;;;;;;0.60;0.10;;;17.60;99.90;;;;;;5041500;28;20530;-75
2023/10/01 22:22:42;;;;;;;0.60;0.10;;;17.50;99.90;;;;;;5051545;28;20485;-74
2023/10/01 22:25:20;;;;;;;0.60;0.20;;;17.50;99.90;;;;;;5045916;28;20454;-73
2023/10/01 22:27:59;;;;;;;0.60;0.20;;;17.50;99.90;;;;;;5039320;28;20469;-74
2023/10/01 22:30:28;;;;;;;0.60;0.10;;;17.50;99.90;;;;;;5044334;28;20485;-75
2023/10/01 22:32:57;;;;;;;0.70;0.10;;;17.50;99.90;;;;;;5051644;28;20439;-75
2023/10/01 22:35:47;;;;;;;0.60;0.10;;;17.50;99.90;;;;;;5032731;28;20442;-76
2023/10/01 22:38:15;;;;;;;0.60;0.10;;;17.50;99.90;;;;;;5038517;28;20505;-75
2023/10/01 22:40:50;;;;;;;0.60;0.10;;;17.50;99.90;;;;;;5044490;28;20485;-75
2023/10/01 22:43:21;;;;;;;0.60;0.10;;;17.50;99.90;;;;;;5052242;28;20524;-75
2023/10/01 22:45:54;;;;;;;0.70;0.50;;;17.40;99.90;;;;;;5051977;28;20467;-75
2023/10/01 22:48:28;;;;;;;0.60;0.10;;;17.40;99.90;;;;;;5041211;28;20494;-75
2023/10/01 22:51:00;;;;;;;0.60;0.20;;;17.40;99.90;;;;;;5036357;28;20485;-76
2023/10/01 22:53:28;;;;;;;2.23;0.40;;;17.20;99.90;;;;;;5043983;28;20897;-77
2023/10/01 22:55:57;;;;;;;0.60;0.10;;;17.30;99.90;;;;;;5031889;28;20446;-75
2023/10/01 22:58:29;;;;;;;0.60;0.10;;;17.30;99.90;;;;;;5032255;28;20451;-74
2023/10/01 23:01:02;;;;;;;1.90;1.80;;;17.30;99.90;;;;;;5032310;28;20452;-75
2023/10/01 23:03:33;;;;;;;0.60;0.10;;;17.20;99.90;;;;;;5032070;28;20533;-74
2023/10/01 23:06:03;;;;;;;0.60;0.20;;;17.20;99.90;;;;;;5031728;28;20470;-74
2023/10/01 23:08:32;;;;;;;0.60;0.20;;;17.20;99.90;;;;;;5034835;28;20779;-74
2023/10/01 23:11:01;;;;;;;0.60;0.20;;;17.10;99.90;;;;;;5040185;28;20576;-74
2023/10/01 23:13:30;;;;;;;0.60;0.10;;;17.00;99.90;;;;;;5048744;28;20442;-74
2023/10/01 23:16:02;;;;;;;0.60;0.20;;;;;;;;;;5047085;28;20451;-74
2023/10/01 23:18:41;;;;;;;0.60;0.10;;;17.00;99.90;;;;;;5040036;28;20509;-73
2023/10/01 23:21:14;;;;;;;0.60;0.10;;;16.90;99.90;;;;;;5038164;28;20981;-74
2023/10/01 23:23:43;;;;;;;0.60;0.10;;;17.00;99.90;;;;;;5034153;28;20443;-74
2023/10/01 23:26:27;;;;;;;0.70;0.20;;;17.10;99.90;;;;;;5045316;28;20455;-74
2023/10/01 23:31:48;;;;;;;0.60;0.10;;;16.90;99.90;;;;;;5033338;28;20449;-74
2023/10/01 23:34:21;;;;;;;0.60;0.10;;;16.90;99.90;;;;;;5038445;28;20445;-74
2023/10/01 23:36:50;;;;;;;0.60;0.10;;;16.90;99.90;;;;;;5040488;28;20993;-74
2023/10/01 23:39:36;;;;;;;0.60;0.10;;;16.90;99.90;;;;;;5046405;28;20936;-74
2023/10/01 23:42:05;;;;;;;0.60;0.10;;;;;;;;;;5038270;28;20446;-75
2023/10/01 23:47:20;;;;;;;0.60;0.10;;;16.90;99.90;;;;;;5042036;28;20477;-74
2023/10/01 23:49:50;;;;;;;1.00;0.57;;;16.90;99.90;;;;;;5047369;28;20489;-74
2023/10/01 23:52:18;;;;;;;0.60;0.17;;;16.90;99.90;;;;;;5040745;28;20452;-75
2023/10/01 23:54:46;;;;;;;0.70;0.43;;;16.90;99.90;;;;;;5035753;28;20453;-75
2023/10/01 23:57:14;;;;;;;0.60;0.20;;;16.90;99.90;;;;;;5043354;28;20479;-74
2023/10/01 23:59:48;;;;;;;0.70;0.43;;;16.80;99.90;;;;;;5035709;28;20451;-74
